Huvudsida
METAR-TAF:

METAR-TAF

Flygplatser :

Jaipur Airport

Jaipur, Indien

latitud: 26-49N, longitud: 075-48E, höjd: 385 m

Aktuellt väderrapport

Denna rapport gjordes för 34 minuter sedan, klockan 08:30 UTC
Vind 4 kt från väst/sydväst
Temperatur 43°C
Fuktighet 12%
Tryck 1005 hPa
Sikt: 6000 m
Spridda moln på en höjd av 3000 ft

METAR: VIJP 200830Z 24004KT 6000 SCT030 43/08 Q1005 NOSIG

Tid: 14:34 (09:04 UTC)

Väderprognos

Denna rapport gjordes för 1 timme och 4 minuter sedan, klockan 08:00 UTC
Prognos gäller från 20 kl. 09 UTC till 20 kl. 18 UTC
Vind 10 kt från väst
Sikt: 5000 m
Spridda moln på en höjd av 3000 ft
torrdis
Blir
från 20 kl. 15 UTC till 20 kl. 17 UTC
Vind 6 kt från nord/nordväst
Sikt: 4000 m
Få moln på en höjd av 3000 ft
Spridda moln på en höjd av 10000 ft
torrdis,

TAF: VIJP 200800Z 2009/2018 26010KT 5000 HZ SCT030 BECMG 2015/2017 34006KT 4000 HZ FEW030 SCT100

Aktuella väderrapporter och prognoser från 4000 flygplatser (METAR- och TAF-rapporter).

De tillgängliga stationerna syns som gula och röda prickar på kartan.

För musen över prickarna för att se namnen på stationerna.

Klicka sedan för att få väderrapporter och prognoser.

För att ändra kartan: Klicka på de gröna knapparna med ett svart kors på för att zooma in; den gröna knappen med ett streck på för att zooma ut; eller på de gröna pilarna för angränsande kartor.


METAR-TAF: